sensor_id;sensor_type;location;lat;lon;timestamp;pressure;altitude;pressure_sealevel;temperature;humidity
50282;BME280;36176;51.506;10.272;2022-08-19T00:01:28;99075.16;;;19.30;90.00
50282;BME280;36176;51.506;10.272;2022-08-19T00:04:06;99077.97;;;19.28;90.25
50282;BME280;36176;51.506;10.272;2022-08-19T00:06:35;99078.53;;;19.32;89.58
50282;BME280;36176;51.506;10.272;2022-08-19T00:09:05;99082.78;;;19.34;89.71
50282;BME280;36176;51.506;10.272;2022-08-19T00:11:32;99081.53;;;19.39;90.22
50282;BME280;36176;51.506;10.272;2022-08-19T00:14:01;99081.00;;;19.45;90.71
50282;BME280;36176;51.506;10.272;2022-08-19T00:16:29;99072.78;;;19.46;90.46
50282;BME280;36176;51.506;10.272;2022-08-19T00:18:56;99071.66;;;19.49;90.44
50282;BME280;36176;51.506;10.272;2022-08-19T00:21:25;99074.22;;;19.50;90.38
50282;BME280;36176;51.506;10.272;2022-08-19T00:24:16;99071.38;;;19.52;90.82
50282;BME280;36176;51.506;10.272;2022-08-19T00:26:44;99069.84;;;19.59;90.46
50282;BME280;36176;51.506;10.272;2022-08-19T00:29:15;99067.88;;;19.61;90.54
50282;BME280;36176;51.506;10.272;2022-08-19T00:31:44;99065.19;;;19.61;90.56
50282;BME280;36176;51.506;10.272;2022-08-19T00:34:13;99067.00;;;19.61;90.47
50282;BME280;36176;51.506;10.272;2022-08-19T00:36:42;99072.25;;;19.62;90.89
50282;BME280;36176;51.506;10.272;2022-08-19T00:39:12;99074.94;;;19.62;90.90
50282;BME280;36176;51.506;10.272;2022-08-19T00:41:40;99080.19;;;19.64;90.68
50282;BME280;36176;51.506;10.272;2022-08-19T00:44:09;99080.03;;;19.65;91.35
50282;BME280;36176;51.506;10.272;2022-08-19T00:46:39;99084.41;;;19.66;90.95
50282;BME280;36176;51.506;10.272;2022-08-19T00:49:12;99071.72;;;19.68;90.91
50282;BME280;36176;51.506;10.272;2022-08-19T00:51:43;99072.56;;;19.69;90.96
50282;BME280;36176;51.506;10.272;2022-08-19T00:54:12;99073.28;;;19.71;90.15
50282;BME280;36176;51.506;10.272;2022-08-19T00:56:43;99067.75;;;19.72;90.75
50282;BME280;36176;51.506;10.272;2022-08-19T00:59:12;99054.31;;;19.72;90.14
50282;BME280;36176;51.506;10.272;2022-08-19T01:02:03;99047.13;;;19.73;90.43
50282;BME280;36176;51.506;10.272;2022-08-19T01:04:34;99056.75;;;19.75;90.48
50282;BME280;36176;51.506;10.272;2022-08-19T01:07:02;99051.38;;;19.75;89.62
50282;BME280;36176;51.506;10.272;2022-08-19T01:09:37;99054.91;;;19.76;89.54
50282;BME280;36176;51.506;10.272;2022-08-19T01:12:05;99055.03;;;19.74;89.43
50282;BME280;36176;51.506;10.272;2022-08-19T01:14:32;99044.97;;;19.76;89.34
50282;BME280;36176;51.506;10.272;2022-08-19T01:17:03;99047.81;;;19.75;89.35
50282;BME280;36176;51.506;10.272;2022-08-19T01:19:36;99043.00;;;19.69;89.90
50282;BME280;36176;51.506;10.272;2022-08-19T01:24:46;99036.03;;;19.66;89.28
50282;BME280;36176;51.506;10.272;2022-08-19T01:27:16;99043.41;;;19.64;89.37
50282;BME280;36176;51.506;10.272;2022-08-19T01:29:44;99039.72;;;19.65;88.92
50282;BME280;36176;51.506;10.272;2022-08-19T01:32:14;99049.47;;;19.66;88.90
50282;BME280;36176;51.506;10.272;2022-08-19T01:35:01;99040.59;;;19.66;88.38
50282;BME280;36176;51.506;10.272;2022-08-19T01:37:30;99045.09;;;19.65;88.11
50282;BME280;36176;51.506;10.272;2022-08-19T01:39:58;99046.81;;;19.66;88.62
50282;BME280;36176;51.506;10.272;2022-08-19T01:42:26;99054.03;;;19.66;87.68
50282;BME280;36176;51.506;10.272;2022-08-19T01:44:56;99046.94;;;19.65;87.94
50282;BME280;36176;51.506;10.272;2022-08-19T01:47:24;99045.25;;;19.64;87.74
50282;BME280;36176;51.506;10.272;2022-08-19T01:49:51;99045.09;;;19.65;87.91
50282;BME280;36176;51.506;10.272;2022-08-19T01:52:19;99031.09;;;19.62;87.72
50282;BME280;36176;51.506;10.272;2022-08-19T01:54:46;99027.81;;;19.58;87.33
50282;BME280;36176;51.506;10.272;2022-08-19T01:57:13;99026.25;;;19.55;87.81
50282;BME280;36176;51.506;10.272;2022-08-19T01:59:43;99037.59;;;19.49;88.21
50282;BME280;36176;51.506;10.272;2022-08-19T02:02:11;99036.16;;;19.45;88.18
50282;BME280;36176;51.506;10.272;2022-08-19T02:04:41;99031.09;;;19.42;88.21
50282;BME280;36176;51.506;10.272;2022-08-19T02:07:09;99029.66;;;19.38;87.83
50282;BME280;36176;51.506;10.272;2022-08-19T02:09:42;99030.66;;;19.37;88.08
50282;BME280;36176;51.506;10.272;2022-08-19T02:12:09;99017.91;;;19.29;88.57
50282;BME280;36176;51.506;10.272;2022-08-19T02:14:37;99030.59;;;19.27;88.70
50282;BME280;36176;51.506;10.272;2022-08-19T02:17:11;99040.66;;;19.25;88.11
50282;BME280;36176;51.506;10.272;2022-08-19T02:20:03;99035.41;;;19.24;88.51
50282;BME280;36176;51.506;10.272;2022-08-19T02:22:40;99035.28;;;19.25;88.31
50282;BME280;36176;51.506;10.272;2022-08-19T02:25:25;99037.25;;;19.23;88.08
50282;BME280;36176;51.506;10.272;2022-08-19T02:27:54;99038.38;;;19.21;88.28
50282;BME280;36176;51.506;10.272;2022-08-19T02:30:37;99035.97;;;19.18;87.88
50282;BME280;36176;51.506;10.272;2022-08-19T02:33:06;99028.91;;;19.17;87.72
50282;BME280;36176;51.506;10.272;2022-08-19T02:35:34;99033.28;;;19.18;87.77
50282;BME280;36176;51.506;10.272;2022-08-19T02:38:05;99028.91;;;19.17;87.97
50282;BME280;36176;51.506;10.272;2022-08-19T03:01:04;99031.28;;;19.10;87.45
50282;BME280;36176;51.506;10.272;2022-08-19T03:03:47;99032.13;;;19.10;87.32
50282;BME280;36176;51.506;10.272;2022-08-19T03:07:33;99028.47;;;19.11;87.52
50282;BME280;36176;51.506;10.272;2022-08-19T03:23:05;99069.19;;;19.17;86.99
50282;BME280;36176;51.506;10.272;2022-08-19T03:25:53;99079.63;;;19.20;86.84
50282;BME280;36176;51.506;10.272;2022-08-19T03:28:44;99080.50;;;19.20;86.85
50282;BME280;36176;51.506;10.272;2022-08-19T03:31:34;99068.78;;;19.21;86.47
50282;BME280;36176;51.506;10.272;2022-08-19T03:35:06;99070.75;;;19.19;86.67
50282;BME280;36176;51.506;10.272;2022-08-19T03:59:14;99101.44;;;19.26;84.65
50282;BME280;36176;51.506;10.272;2022-08-19T04:02:20;99096.63;;;19.20;85.43
50282;BME280;36176;51.506;10.272;2022-08-19T04:31:51;99093.41;;;18.96;85.21
50282;BME280;36176;51.506;10.272;2022-08-19T04:34:42;99090.72;;;18.96;86.14
50282;BME280;36176;51.506;10.272;2022-08-19T04:37:30;99089.16;;;18.93;85.51
50282;BME280;36176;51.506;10.272;2022-08-19T04:40:05;99087.19;;;18.95;85.84
50282;BME280;36176;51.506;10.272;2022-08-19T04:42:52;99085.50;;;18.94;85.13
50282;BME280;36176;51.506;10.272;2022-08-19T04:45:20;99080.97;;;18.95;85.73
50282;BME280;36176;51.506;10.272;2022-08-19T04:47:49;99088.19;;;18.94;85.70
50282;BME280;36176;51.506;10.272;2022-08-19T04:50:39;99087.19;;;18.95;85.77
50282;BME280;36176;51.506;10.272;2022-08-19T04:53:08;99086.34;;;18.95;85.55
50282;BME280;36176;51.506;10.272;2022-08-19T04:55:39;99093.56;;;18.94;84.84
50282;BME280;36176;51.506;10.272;2022-08-19T04:58:07;99094.81;;;18.90;84.82
50282;BME280;36176;51.506;10.272;2022-08-19T05:00:38;99085.91;;;18.89;85.28
50282;BME280;36176;51.506;10.272;2022-08-19T05:03:05;99092.84;;;18.92;85.04
50282;BME280;36176;51.506;10.272;2022-08-19T05:05:33;99094.41;;;18.95;85.12
50282;BME280;36176;51.506;10.272;2022-08-19T05:08:17;99091.16;;;19.01;84.63
50282;BME280;36176;51.506;10.272;2022-08-19T05:10:57;99093.59;;;19.04;84.28
50282;BME280;36176;51.506;10.272;2022-08-19T05:13:35;99095.16;;;19.06;83.74
50282;BME280;36176;51.506;10.272;2022-08-19T05:16:02;99097.44;;;19.11;83.69
50282;BME280;36176;51.506;10.272;2022-08-19T05:18:29;99098.00;;;19.15;83.26
50282;BME280;36176;51.506;10.272;2022-08-19T05:21:17;99101.28;;;19.18;82.18
50282;BME280;36176;51.506;10.272;2022-08-19T05:24:04;99092.34;;;19.18;82.53
50282;BME280;36176;51.506;10.272;2022-08-19T05:26:41;99098.59;;;19.18;82.07
50282;BME280;36176;51.506;10.272;2022-08-19T05:29:09;99103.81;;;19.20;81.79
50282;BME280;36176;51.506;10.272;2022-08-19T05:31:37;99090.53;;;19.18;81.37
50282;BME280;36176;51.506;10.272;2022-08-19T05:34:07;99091.50;;;19.17;81.76
50282;BME280;36176;51.506;10.272;2022-08-19T05:36:46;99101.13;;;19.20;81.74
50282;BME280;36176;51.506;10.272;2022-08-19T05:39:20;99105.97;;;19.26;81.02
50282;BME280;36176;51.506;10.272;2022-08-19T05:41:50;99107.13;;;19.33;81.35
50282;BME280;36176;51.506;10.272;2022-08-19T05:44:17;99108.09;;;19.32;81.16
50282;BME280;36176;51.506;10.272;2022-08-19T05:46:44;99107.69;;;19.37;81.25
50282;BME280;36176;51.506;10.272;2022-08-19T05:49:15;99109.41;;;19.38;81.39
50282;BME280;36176;51.506;10.272;2022-08-19T05:51:42;99110.53;;;19.45;81.40
50282;BME280;36176;51.506;10.272;2022-08-19T05:54:10;99116.91;;;19.53;81.17
50282;BME280;36176;51.506;10.272;2022-08-19T05:56:41;99121.75;;;19.60;81.02
50282;BME280;36176;51.506;10.272;2022-08-19T05:59:10;99128.38;;;19.65;80.32
50282;BME280;36176;51.506;10.272;2022-08-19T06:01:40;99123.34;;;19.72;80.03
50282;BME280;36176;51.506;10.272;2022-08-19T06:04:08;99123.22;;;19.83;79.85
50282;BME280;36176;51.506;10.272;2022-08-19T06:06:36;99119.84;;;20.01;78.91
50282;BME280;36176;51.506;10.272;2022-08-19T06:09:04;99108.53;;;20.16;78.30
50282;BME280;36176;51.506;10.272;2022-08-19T06:14:18;99118.69;;;20.42;77.01
50282;BME280;36176;51.506;10.272;2022-08-19T06:16:53;99115.44;;;20.48;77.08
50282;BME280;36176;51.506;10.272;2022-08-19T06:19:21;99114.72;;;20.56;76.56
50282;BME280;36176;51.506;10.272;2022-08-19T06:21:52;99114.44;;;20.69;76.41
50282;BME280;36176;51.506;10.272;2022-08-19T06:24:24;99123.03;;;20.82;75.30
50282;BME280;36176;51.506;10.272;2022-08-19T06:26:53;99128.53;;;20.90;74.49
50282;BME280;36176;51.506;10.272;2022-08-19T06:29:27;99128.94;;;20.95;74.73
50282;BME280;36176;51.506;10.272;2022-08-19T06:31:58;99134.75;;;21.00;74.39
50282;BME280;36176;51.506;10.272;2022-08-19T06:34:27;99135.19;;;20.96;74.22
50282;BME280;36176;51.506;10.272;2022-08-19T06:36:56;99132.09;;;20.91;73.84
50282;BME280;36176;51.506;10.272;2022-08-19T06:39:26;99138.44;;;20.90;74.26
50282;BME280;36176;51.506;10.272;2022-08-19T06:41:56;99147.09;;;20.93;73.78
50282;BME280;36176;51.506;10.272;2022-08-19T06:44:27;99149.22;;;20.90;73.48
50282;BME280;36176;51.506;10.272;2022-08-19T06:46:56;99156.88;;;20.85;74.01
50282;BME280;36176;51.506;10.272;2022-08-19T06:49:23;99162.44;;;20.83;73.71
50282;BME280;36176;51.506;10.272;2022-08-19T06:51:54;99158.03;;;20.82;73.29
50282;BME280;36176;51.506;10.272;2022-08-19T06:54:24;99163.28;;;20.84;73.94
50282;BME280;36176;51.506;10.272;2022-08-19T06:57:00;99171.06;;;20.87;72.91
50282;BME280;36176;51.506;10.272;2022-08-19T06:59:31;99168.94;;;20.90;72.97
50282;BME280;36176;51.506;10.272;2022-08-19T07:02:03;99184.63;;;20.95;72.97
50282;BME280;36176;51.506;10.272;2022-08-19T07:04:36;99179.09;;;20.96;72.13
50282;BME280;36176;51.506;10.272;2022-08-19T07:07:12;99191.13;;;21.02;73.55
50282;BME280;36176;51.506;10.272;2022-08-19T07:09:49;99198.63;;;21.08;73.25
50282;BME280;36176;51.506;10.272;2022-08-19T07:12:29;99192.50;;;21.16;72.70
50282;BME280;36176;51.506;10.272;2022-08-19T07:14:58;99197.47;;;21.20;71.97
50282;BME280;36176;51.506;10.272;2022-08-19T07:17:28;99206.25;;;21.22;71.55
50282;BME280;36176;51.506;10.272;2022-08-19T07:19:58;99196.75;;;21.18;70.71
50282;BME280;36176;51.506;10.272;2022-08-19T07:22:34;99195.91;;;21.18;71.55
50282;BME280;36176;51.506;10.272;2022-08-19T07:25:02;99191.22;;;21.20;71.59
50282;BME280;36176;51.506;10.272;2022-08-19T07:27:30;99201.72;;;21.23;70.62
50282;BME280;36176;51.506;10.272;2022-08-19T07:29:59;99206.56;;;21.19;70.11
50282;BME280;36176;51.506;10.272;2022-08-19T07:32:33;99218.03;;;21.12;69.34
50282;BME280;36176;51.506;10.272;2022-08-19T07:35:00;99215.97;;;20.96;70.11
50282;BME280;36176;51.506;10.272;2022-08-19T07:37:27;99227.06;;;20.83;69.91
50282;BME280;36176;51.506;10.272;2022-08-19T07:40:07;99224.09;;;20.76;69.16
50282;BME280;36176;51.506;10.272;2022-08-19T07:42:34;99227.19;;;20.72;68.74
50282;BME280;36176;51.506;10.272;2022-08-19T07:45:02;99227.75;;;20.66;69.42
50282;BME280;36176;51.506;10.272;2022-08-19T07:47:30;99232.72;;;20.70;69.40
50282;BME280;36176;51.506;10.272;2022-08-19T07:50:18;99229.47;;;20.67;68.70
50282;BME280;36176;51.506;10.272;2022-08-19T07:52:48;99232.00;;;20.68;68.53
50282;BME280;36176;51.506;10.272;2022-08-19T07:55:20;99238.69;;;20.74;67.92
50282;BME280;36176;51.506;10.272;2022-08-19T07:58:08;99229.16;;;20.79;67.40
50282;BME280;36176;51.506;10.272;2022-08-19T08:00:35;99229.03;;;20.81;66.67
50282;BME280;36176;51.506;10.272;2022-08-19T08:03:03;99232.44;;;20.83;66.50
50282;BME280;36176;51.506;10.272;2022-08-19T08:05:30;99230.44;;;20.85;66.16
50282;BME280;36176;51.506;10.272;2022-08-19T08:08:35;99234.56;;;20.79;65.69
50282;BME280;36176;51.506;10.272;2022-08-19T08:11:21;99234.84;;;20.76;66.20
50282;BME280;36176;51.506;10.272;2022-08-19T08:14:08;99233.84;;;20.77;65.72
50282;BME280;36176;51.506;10.272;2022-08-19T08:17:05;99240.34;;;20.85;65.82
50282;BME280;36176;51.506;10.272;2022-08-19T08:19:37;99237.38;;;20.88;66.14
50282;BME280;36176;51.506;10.272;2022-08-19T08:22:04;99242.91;;;20.96;65.84
50282;BME280;36176;51.506;10.272;2022-08-19T08:24:34;99238.06;;;20.99;65.31
50282;BME280;36176;51.506;10.272;2022-08-19T08:27:02;99237.16;;;21.18;66.09
50282;BME280;36176;51.506;10.272;2022-08-19T08:29:37;99241.94;;;21.44;64.57
50282;BME280;36176;51.506;10.272;2022-08-19T08:32:08;99245.19;;;21.57;64.68
50282;BME280;36176;51.506;10.272;2022-08-19T08:34:41;99238.28;;;21.73;64.10
50282;BME280;36176;51.506;10.272;2022-08-19T08:37:12;99248.19;;;21.82;63.97
50282;BME280;36176;51.506;10.272;2022-08-19T08:39:53;99254.00;;;22.05;63.69
50282;BME280;36176;51.506;10.272;2022-08-19T08:42:51;99250.22;;;22.25;62.07
50282;BME280;36176;51.506;10.272;2022-08-19T08:45:33;99243.75;;;22.36;61.00
50282;BME280;36176;51.506;10.272;2022-08-19T08:49:06;99254.19;;;22.49;59.98
50282;BME280;36176;51.506;10.272;2022-08-19T08:51:11;99256.09;;;22.57;59.33
50282;BME280;36176;51.506;10.272;2022-08-19T08:53:49;99271.53;;;22.64;59.27
50282;BME280;36176;51.506;10.272;2022-08-19T08:56:22;99259.09;;;22.71;59.14
50282;BME280;36176;51.506;10.272;2022-08-19T08:59:03;99258.41;;;22.87;58.50
50282;BME280;36176;51.506;10.272;2022-08-19T09:01:34;99256.22;;;22.91;57.76
50282;BME280;36176;51.506;10.272;2022-08-19T09:04:04;99262.34;;;23.37;57.29
50282;BME280;36176;51.506;10.272;2022-08-19T09:06:48;99267.69;;;23.63;55.40
50282;BME280;36176;51.506;10.272;2022-08-19T09:09:29;99262.25;;;23.81;56.99
50282;BME280;36176;51.506;10.272;2022-08-19T09:15:10;99270.16;;;24.09;53.19
50282;BME280;36176;51.506;10.272;2022-08-19T09:17:38;99263.66;;;23.93;53.46
50282;BME280;36176;51.506;10.272;2022-08-19T09:22:37;99262.19;;;24.07;53.83
50282;BME280;36176;51.506;10.272;2022-08-19T09:25:08;99272.69;;;24.10;53.80
50282;BME280;36176;51.506;10.272;2022-08-19T09:27:37;99278.44;;;24.07;53.57
50282;BME280;36176;51.506;10.272;2022-08-19T09:30:19;99286.13;;;23.94;53.80
50282;BME280;36176;51.506;10.272;2022-08-19T09:32:48;99285.38;;;24.10;54.81
50282;BME280;36176;51.506;10.272;2022-08-19T09:35:24;99274.75;;;24.16;54.37
50282;BME280;36176;51.506;10.272;2022-08-19T09:38:12;99291.34;;;24.30;54.26
50282;BME280;36176;51.506;10.272;2022-08-19T09:40:39;99286.56;;;24.15;55.02
50282;BME280;36176;51.506;10.272;2022-08-19T09:43:07;99283.84;;;24.15;54.55
50282;BME280;36176;51.506;10.272;2022-08-19T09:45:39;99280.50;;;24.22;54.89
50282;BME280;36176;51.506;10.272;2022-08-19T09:48:09;99274.88;;;24.57;54.90
50282;BME280;36176;51.506;10.272;2022-08-19T09:50:37;99270.47;;;25.14;53.31
50282;BME280;36176;51.506;10.272;2022-08-19T09:53:18;99273.34;;;25.37;52.45
50282;BME280;36176;51.506;10.272;2022-08-19T09:55:46;99264.63;;;25.74;51.39
50282;BME280;36176;51.506;10.272;2022-08-19T09:58:13;99263.19;;;26.03;50.26
50282;BME280;36176;51.506;10.272;2022-08-19T10:00:40;99267.72;;;26.10;50.08
50282;BME280;36176;51.506;10.272;2022-08-19T10:03:07;99260.63;;;26.33;48.42
50282;BME280;36176;51.506;10.272;2022-08-19T10:05:35;99254.84;;;26.36;48.21
50282;BME280;36176;51.506;10.272;2022-08-19T10:08:39;99255.03;;;26.65;49.04
50282;BME280;36176;51.506;10.272;2022-08-19T10:11:17;99254.53;;;26.62;47.38
50282;BME280;36176;51.506;10.272;2022-08-19T10:14:09;99260.97;;;26.84;47.38
50282;BME280;36176;51.506;10.272;2022-08-19T10:16:37;99253.22;;;26.95;47.53
50282;BME280;36176;51.506;10.272;2022-08-19T10:19:05;99252.69;;;27.38;47.61
50282;BME280;36176;51.506;10.272;2022-08-19T10:21:33;99241.72;;;27.31;45.63
50282;BME280;36176;51.506;10.272;2022-08-19T10:24:04;99242.38;;;27.48;45.01
50282;BME280;36176;51.506;10.272;2022-08-19T10:26:40;99239.59;;;27.42;45.21
50282;BME280;36176;51.506;10.272;2022-08-19T10:29:13;99234.22;;;27.48;44.98
50282;BME280;36176;51.506;10.272;2022-08-19T10:32:17;99228.88;;;27.55;43.80
50282;BME280;36176;51.506;10.272;2022-08-19T10:34:59;99227.38;;;27.52;44.46
50282;BME280;36176;51.506;10.272;2022-08-19T10:37:27;99237.78;;;27.34;44.54
50282;BME280;36176;51.506;10.272;2022-08-19T10:39:58;99243.81;;;27.44;45.42
50282;BME280;36176;51.506;10.272;2022-08-19T10:42:25;99231.47;;;28.08;44.90
50282;BME280;36176;51.506;10.272;2022-08-19T10:44:52;99231.28;;;28.89;42.78
50282;BME280;36176;51.506;10.272;2022-08-19T10:47:20;99218.09;;;29.14;40.14
50282;BME280;36176;51.506;10.272;2022-08-19T10:49:53;99227.97;;;28.93;42.30
50282;BME280;36176;51.506;10.272;2022-08-19T10:52:42;99217.72;;;29.17;40.56
50282;BME280;36176;51.506;10.272;2022-08-19T10:55:21;99218.78;;;29.22;41.85
50282;BME280;36176;51.506;10.272;2022-08-19T10:58:18;99228.47;;;29.60;41.49
50282;BME280;36176;51.506;10.272;2022-08-19T11:00:58;99229.41;;;29.74;38.74
50282;BME280;36176;51.506;10.272;2022-08-19T11:03:26;99221.28;;;29.52;40.53
50282;BME280;36176;51.506;10.272;2022-08-19T11:05:59;99212.00;;;29.75;38.86
50282;BME280;36176;51.506;10.272;2022-08-19T11:08:27;99203.47;;;29.91;38.70
50282;BME280;36176;51.506;10.272;2022-08-19T11:10:54;99205.88;;;29.73;39.23
50282;BME280;36176;51.506;10.272;2022-08-19T11:13:24;99206.41;;;29.96;39.63
50282;BME280;36176;51.506;10.272;2022-08-19T11:16:05;99199.09;;;30.17;38.27
50282;BME280;36176;51.506;10.272;2022-08-19T11:18:39;99202.78;;;30.44;37.71
50282;BME280;36176;51.506;10.272;2022-08-19T11:21:13;99204.66;;;30.30;38.38
50282;BME280;36176;51.506;10.272;2022-08-19T11:23:41;99196.91;;;30.47;38.92
50282;BME280;36176;51.506;10.272;2022-08-19T11:26:09;99191.66;;;30.59;38.29
50282;BME280;36176;51.506;10.272;2022-08-19T11:28:37;99189.75;;;30.52;38.58
50282;BME280;36176;51.506;10.272;2022-08-19T11:31:09;99186.81;;;30.74;36.39
50282;BME280;36176;51.506;10.272;2022-08-19T11:33:36;99187.44;;;30.69;37.46
50282;BME280;36176;51.506;10.272;2022-08-19T11:36:04;99182.66;;;30.91;36.81
50282;BME280;36176;51.506;10.272;2022-08-19T11:38:32;99186.22;;;31.12;36.63
50282;BME280;36176;51.506;10.272;2022-08-19T11:41:01;99171.28;;;30.88;36.40
50282;BME280;36176;51.506;10.272;2022-08-19T11:43:30;99170.47;;;30.94;36.41
50282;BME280;36176;51.506;10.272;2022-08-19T11:46:07;99167.28;;;30.77;36.29
50282;BME280;36176;51.506;10.272;2022-08-19T11:48:58;99166.44;;;30.57;37.26
50282;BME280;36176;51.506;10.272;2022-08-19T11:51:27;99168.16;;;30.84;36.41
50282;BME280;36176;51.506;10.272;2022-08-19T11:53:57;99163.94;;;31.02;36.14
50282;BME280;36176;51.506;10.272;2022-08-19T11:56:26;99160.31;;;30.55;36.86
50282;BME280;36176;51.506;10.272;2022-08-19T11:58:54;99166.09;;;30.05;36.98
50282;BME280;36176;51.506;10.272;2022-08-19T12:01:25;99161.78;;;29.76;37.74
50282;BME280;36176;51.506;10.272;2022-08-19T12:03:54;99158.63;;;29.37;37.02
50282;BME280;36176;51.506;10.272;2022-08-19T12:06:29;99157.25;;;29.48;38.17
50282;BME280;36176;51.506;10.272;2022-08-19T12:09:03;99155.41;;;30.10;36.80
50282;BME280;36176;51.506;10.272;2022-08-19T12:11:31;99152.22;;;30.06;36.83
50282;BME280;36176;51.506;10.272;2022-08-19T12:14:21;99149.31;;;30.15;37.08
50282;BME280;36176;51.506;10.272;2022-08-19T12:17:08;99159.91;;;30.51;36.79
50282;BME280;36176;51.506;10.272;2022-08-19T12:19:36;99150.00;;;30.50;35.41
50282;BME280;36176;51.506;10.272;2022-08-19T12:22:04;99155.50;;;30.57;36.42
50282;BME280;36176;51.506;10.272;2022-08-19T12:24:33;99162.25;;;30.87;36.16
50282;BME280;36176;51.506;10.272;2022-08-19T12:27:03;99160.56;;;31.06;34.64
50282;BME280;36176;51.506;10.272;2022-08-19T12:29:35;99154.00;;;31.27;35.16
50282;BME280;36176;51.506;10.272;2022-08-19T12:32:05;99147.72;;;31.07;33.62
50282;BME280;36176;51.506;10.272;2022-08-19T12:34:36;99142.69;;;30.50;33.10
50282;BME280;36176;51.506;10.272;2022-08-19T12:37:05;99138.59;;;30.20;34.16
50282;BME280;36176;51.506;10.272;2022-08-19T12:39:41;99135.66;;;30.15;33.25
50282;BME280;36176;51.506;10.272;2022-08-19T12:42:10;99127.91;;;30.25;33.36
50282;BME280;36176;51.506;10.272;2022-08-19T12:44:41;99135.09;;;30.59;34.06
50282;BME280;36176;51.506;10.272;2022-08-19T12:47:12;99128.56;;;31.07;33.48
50282;BME280;36176;51.506;10.272;2022-08-19T12:49:41;99130.47;;;31.06;31.45
50282;BME280;36176;51.506;10.272;2022-08-19T12:52:22;99123.53;;;30.90;32.16
50282;BME280;36176;51.506;10.272;2022-08-19T12:54:55;99129.19;;;31.02;30.65
50282;BME280;36176;51.506;10.272;2022-08-19T12:57:25;99124.78;;;30.68;34.03
50282;BME280;36176;51.506;10.272;2022-08-19T13:00:01;99114.69;;;30.88;32.30
50282;BME280;36176;51.506;10.272;2022-08-19T13:02:31;99119.50;;;31.06;33.83
50282;BME280;36176;51.506;10.272;2022-08-19T13:05:09;99118.19;;;31.22;32.95
50282;BME280;36176;51.506;10.272;2022-08-19T13:07:39;99114.22;;;31.25;32.77
50282;BME280;36176;51.506;10.272;2022-08-19T13:10:08;99116.25;;;31.36;30.08
50282;BME280;36176;51.506;10.272;2022-08-19T13:12:36;99125.75;;;31.27;30.85
50282;BME280;36176;51.506;10.272;2022-08-19T13:15:04;99104.72;;;31.27;29.07
50282;BME280;36176;51.506;10.272;2022-08-19T13:17:38;99102.88;;;31.08;29.48
50282;BME280;36176;51.506;10.272;2022-08-19T13:20:07;99104.38;;;31.04;31.55
50282;BME280;36176;51.506;10.272;2022-08-19T13:22:37;99113.81;;;31.14;29.59
50282;BME280;36176;51.506;10.272;2022-08-19T13:25:07;99121.19;;;31.14;29.85
50282;BME280;36176;51.506;10.272;2022-08-19T13:27:37;99110.03;;;31.09;30.06
50282;BME280;36176;51.506;10.272;2022-08-19T13:30:07;99103.50;;;31.10;30.36
50282;BME280;36176;51.506;10.272;2022-08-19T13:32:53;99106.03;;;30.98;30.08
50282;BME280;36176;51.506;10.272;2022-08-19T13:35:59;99100.16;;;30.81;30.68
50282;BME280;36176;51.506;10.272;2022-08-19T13:38:28;99102.28;;;30.72;30.62
50282;BME280;36176;51.506;10.272;2022-08-19T13:41:04;99095.75;;;30.40;30.85
50282;BME280;36176;51.506;10.272;2022-08-19T13:43:39;99100.56;;;30.18;31.36
50282;BME280;36176;51.506;10.272;2022-08-19T13:46:11;99103.91;;;30.00;32.44
50282;BME280;36176;51.506;10.272;2022-08-19T13:48:41;99104.81;;;30.47;31.00
50282;BME280;36176;51.506;10.272;2022-08-19T13:51:09;99108.78;;;30.65;30.05
50282;BME280;36176;51.506;10.272;2022-08-19T13:53:38;99099.97;;;30.63;31.29
50282;BME280;36176;51.506;10.272;2022-08-19T13:56:11;99098.72;;;30.99;29.80
50282;BME280;36176;51.506;10.272;2022-08-19T13:58:38;99095.97;;;30.85;30.30
50282;BME280;36176;51.506;10.272;2022-08-19T14:01:07;99096.81;;;30.92;30.69
50282;BME280;36176;51.506;10.272;2022-08-19T14:03:35;99098.47;;;31.07;30.09
50282;BME280;36176;51.506;10.272;2022-08-19T14:06:03;99094.59;;;31.34;29.59
50282;BME280;36176;51.506;10.272;2022-08-19T14:08:30;99094.53;;;31.54;29.06
50282;BME280;36176;51.506;10.272;2022-08-19T14:10:59;99091.22;;;31.39;29.10
50282;BME280;36176;51.506;10.272;2022-08-19T14:13:32;99103.91;;;31.20;29.50
50282;BME280;36176;51.506;10.272;2022-08-19T14:16:01;99093.81;;;31.21;31.01
50282;BME280;36176;51.506;10.272;2022-08-19T14:18:29;99099.44;;;31.32;29.49
50282;BME280;36176;51.506;10.272;2022-08-19T14:20:57;99103.03;;;31.26;30.11
50282;BME280;36176;51.506;10.272;2022-08-19T14:23:27;99091.44;;;31.31;29.77
50282;BME280;36176;51.506;10.272;2022-08-19T14:26:07;99103.47;;;31.16;28.99
50282;BME280;36176;51.506;10.272;2022-08-19T14:28:34;99101.44;;;30.99;29.67
50282;BME280;36176;51.506;10.272;2022-08-19T14:31:02;99118.06;;;30.70;30.44
50282;BME280;36176;51.506;10.272;2022-08-19T14:33:32;99117.00;;;30.45;30.20
50282;BME280;36176;51.506;10.272;2022-08-19T14:35:59;99117.84;;;30.39;30.42
50282;BME280;36176;51.506;10.272;2022-08-19T14:38:28;99123.31;;;30.45;30.78
50282;BME280;36176;51.506;10.272;2022-08-19T14:41:16;99124.59;;;30.56;29.48
50282;BME280;36176;51.506;10.272;2022-08-19T14:43:45;99122.28;;;30.46;30.70
50282;BME280;36176;51.506;10.272;2022-08-19T14:46:19;99123.88;;;30.21;30.33
50282;BME280;36176;51.506;10.272;2022-08-19T14:48:51;99116.53;;;30.08;30.21
50282;BME280;36176;51.506;10.272;2022-08-19T14:51:20;99113.34;;;29.91;30.66
50282;BME280;36176;51.506;10.272;2022-08-19T14:53:48;99091.03;;;29.87;31.70
50282;BME280;36176;51.506;10.272;2022-08-19T14:56:18;99102.13;;;29.73;30.98